Flight Track Log - Related Links

Times and Time Zones

All times are in EDT time to prevent confusion due to time zone crossing. See the N211RN flight status page for this flight to view local times or setup timezone preferences in your user account.


Time Position Orientation Groundspeed Altitude Reporting Facility
EDT Latitude Longitude Course Direction KTS MPH feet Rate Location/Type
Wed 12:10:21 PM 40.0947 -80.3486 180° South 242 278 5,200  Level Cleveland Center
Wed 12:11:22 PM 40.0250 -80.3408 175° South 250 288 8,100 3,024 Climbing Cleveland Center
Wed 12:12:24 PM 39.9253 -80.3319 176° South 294 338 11,400 2,710 Climbing Cleveland Center
Wed 12:13:26 PM 39.8281 -80.3231 176° South 341 392 13,700 2,226 Climbing Cleveland Center
Wed 12:14:28 PM 39.7208 -80.3108 175° South 378 435 16,000 2,226 Climbing Cleveland Center
Wed 12:15:00 PM 39.3421 -80.2667 180° South  Level FlightAware Approximate
Wed 12:15:30 PM 39.6092 -80.3025 177° South 400 460 18,300  Level Cleveland Center
Wed 12:16:32 PM 39.4883 -80.2892 175° South 432 497 20,400 2,129 Climbing Cleveland Center
Wed 12:17:34 PM 39.3661 -80.2772 176° South 440 506 22,700 2,032 Climbing Cleveland Center
Wed 12:18:36 PM 39.2106 -80.2694 178° South 469 540 24,600 1,548 Climbing Cleveland Center
Wed 12:19:38 PM 39.0803 -80.2881 186° South 472 543 25,900 1,113 Climbing Cleveland Center
Wed 12:20:40 PM 38.9408 -80.3128 188° South 508 585 26,900 1,043 Climbing Cleveland Center
Wed 12:21:33 PM 38.8325 -80.3275 186° South 489 563 27,900 584 Climbing Washington Center
Wed 12:22:33 PM 38.6897 -80.3556 189° South 506 582 28,000 100 Climbing Washington Center
Wed 12:23:33 PM 38.5303 -80.3769 186° South 524 603 28,100 1,068 Climbing Washington Center
Wed 12:24:31 PM 38.3894 -80.4050 189° South 524 603 30,100 2,034 Climbing Washington Center
Wed 12:25:31 PM 38.2547 -80.4361 190° South 511 588 32,100 1,983 Climbing Washington Center
Wed 12:26:32 PM 38.1311 -80.4517 186° South 506 582 34,100 1,835 Climbing Washington Center
Wed 12:27:32 PM 37.9947 -80.4719 187° South 506 582 35,800 1,800 Climbing Washington Center
Wed 12:28:32 PM 37.8625 -80.4897 186° South 501 577 37,700 1,647 Climbing Washington Center
Wed 12:30:05 PM 37.6589 -80.5111 185° South 474 545 40,000 902 Climbing Atlanta Center
Wed 12:31:05 PM 37.5136 -80.5333 187° South 474 545 40,000  Level Atlanta Center
Wed 12:32:05 PM 37.3786 -80.5497 186° South 480 552 40,000  Level Atlanta Center
Wed 12:33:05 PM 37.2417 -80.5689 186° South 486 559 40,000  Level Atlanta Center
Wed 12:34:05 PM 37.1169 -80.5850 186° South 499 574 40,000  Level Atlanta Center
Wed 12:35:05 PM 36.9797 -80.6014 185° South 499 574 40,000  Level Atlanta Center
Wed 12:36:05 PM 36.8469 -80.6175 186° South 499 574 40,000  Level Atlanta Center
Wed 12:37:05 PM 36.6994 -80.6367 186° South 491 565 40,000  Level Atlanta Center
Wed 12:38:05 PM 36.5622 -80.6528 185° South 491 565 40,000  Level Atlanta Center
Wed 12:39:05 PM 36.4272 -80.6714 186° South 491 565 40,000  Level Atlanta Center
Wed 12:40:05 PM 36.2900 -80.6875 185° South 496 571 40,000  Level Atlanta Center
Wed 12:41:05 PM 36.1797 -80.7025 186° South 496 571 40,000  Level Atlanta Center
Wed 12:42:05 PM 36.0303 -80.7239 187° South 496 571 40,000  Level Atlanta Center
Wed 12:43:05 PM 35.8931 -80.7397 185° South 496 571 40,000  Level Atlanta Center
Wed 12:44:05 PM 35.7536 -80.7583 186° South 501 577 40,000  Level Atlanta Center
Wed 12:45:05 PM 35.6144 -80.7767 186° South 501 577 40,000  Level Atlanta Center
Wed 12:46:05 PM 35.4772 -80.7922 185° South 501 577 40,000  Level Atlanta Center
Wed 12:47:05 PM 35.3378 -80.8131 187° South 501 577 40,000 619 Level Atlanta Center
Wed 12:50:56 PM 34.8342 -80.8717 185° South 443 510 43,000 619 Climbing Jacksonville Center
Wed 12:51:56 PM 34.7031 -80.8850 185° South 448 516 43,000  Level Jacksonville Center
Wed 12:52:56 PM 34.5758 -80.8931 183° South 462 532 43,000  Level Jacksonville Center
Wed 12:53:56 PM 34.4467 -80.9036 184° South 462 532 43,000  Level Jacksonville Center
Wed 12:54:56 PM 34.3194 -80.9064 181° South 462 532 43,000  Level Jacksonville Center
Wed 12:55:56 PM 34.1944 -80.9192 185° South 462 532 43,000  Level Jacksonville Center
Wed 12:56:56 PM 34.0611 -80.9272 183° South 462 532 43,000  Level Jacksonville Center
Wed 12:57:56 PM 33.9319 -80.9378 184° South 462 532 43,000  Level Jacksonville Center
Wed 12:58:56 PM 33.8006 -80.9481 184° South 467 537 43,000  Level Jacksonville Center
Wed 12:59:56 PM 33.6714 -80.9561 183° South 478 550 43,000  Level Jacksonville Center
Wed 01:00:56 PM 33.5378 -80.9664 184° South 478 550 43,000  Level Jacksonville Center
Wed 01:01:56 PM 33.4086 -80.9742 183° South 478 550 43,000  Level Jacksonville Center
Wed 01:02:56 PM 33.2794 -80.9844 184° South 478 550 43,000  Level Jacksonville Center
Wed 01:03:56 PM 33.1522 -80.9919 183° South 478 550 43,000  Level Jacksonville Center
Wed 01:04:56 PM 33.0250 -80.9997 183° South 472 543 43,000  Level Jacksonville Center
Wed 01:05:56 PM 32.8958 -81.0100 184° South 467 537 43,000  Level Jacksonville Center
Wed 01:06:56 PM 32.7686 -81.0175 183° South 462 532 43,000  Level Jacksonville Center
Wed 01:07:57 PM 32.6433 -81.0250 183° South 462 532 43,000  Level Jacksonville Center
Wed 01:08:56 PM 32.5161 -81.0325 183° South 462 532 43,000  Level Jacksonville Center
Wed 01:09:56 PM 32.3786 -81.0428 184° South 457 526 43,000  Level Jacksonville Center
Wed 01:10:56 PM 32.2533 -81.0503 183° South 457 526 43,000  Level Jacksonville Center
Wed 01:11:56 PM 32.1367 -81.0575 183° South 464 534 43,000  Level Jacksonville Center
Wed 01:12:56 PM 31.9925 -81.0628 182° South 471 542 43,000  Level Jacksonville Center
Wed 01:13:56 PM 31.8675 -81.0725 184° South 458 527 43,000  Level Jacksonville Center
Wed 01:14:56 PM 31.7547 -81.0797 183° South 453 521 43,000  Level Jacksonville Center
Wed 01:15:56 PM 31.6172 -81.0922 184° South 453 521 43,000  Level Jacksonville Center
Wed 01:16:57 PM 31.5025 -81.0967 182° South 459 528 43,000 -50 Level Jacksonville Center
Wed 01:17:56 PM 31.3647 -81.1067 184° South 459 528 42,900 -1,059 Descending Jacksonville Center
Wed 01:18:56 PM 31.2375 -81.1164 184° South 459 528 40,900 -2,100 Descending Jacksonville Center
Wed 01:19:56 PM 31.1081 -81.1236 183° South 459 528 38,700 -2,300 Descending Jacksonville Center
Wed 01:20:56 PM 30.9747 -81.1333 184° South 465 535 36,300 -2,450 Descending Jacksonville Center
Wed 01:21:56 PM 30.8411 -81.1408 183° South 477 549 33,800 -2,550 Descending Jacksonville Center
Wed 01:22:56 PM 30.7119 -81.1506 184° South 477 549 31,200 -2,250 Descending Jacksonville Center
Wed 01:23:56 PM 30.5825 -81.1528 181° South 477 549 29,300 -1,500 Descending Jacksonville Center
Wed 01:24:56 PM 30.4656 -81.1500 179° South 477 549 28,200 -1,250 Descending Jacksonville Center
Wed 01:25:56 PM 30.3297 -81.1431 177° South 478 550 26,800 -1,500 Descending Jacksonville Center
Wed 01:26:56 PM 30.1981 -81.1358 177° South 478 550 25,200 -1,650 Descending Jacksonville Center
Wed 01:27:56 PM 30.0700 -81.0853 161° South 478 550 23,500 -1,700 Descending Jacksonville Center
Wed 01:28:56 PM 29.9442 -81.0397 163° South 472 543 21,800 -1,900 Descending Jacksonville Center
Wed 01:29:56 PM 29.8222 -80.9917 161° South 472 543 19,700 -2,200 Descending Jacksonville Center
Wed 01:30:56 PM 29.7008 -80.9606 167° South 458 527 17,400 -2,231 Descending Jacksonville Center
Wed 01:31:57 PM 29.5928 -81.0058 200° South 416 479 15,200 -2,416 Descending Jacksonville Center
Wed 01:32:13 PM 29.5617 -81.0206 202° Southwest 390 449 14,300 -2,237 Descending Jacksonville Center
Wed 01:32:56 PM 29.4953 -81.0458 198° South 400 460 13,000 -2,073 Descending Jacksonville Center
Wed 01:33:08 PM 29.4683 -81.0583 202° Southwest 368 423 12,400 -1,000 Descending Jacksonville Center
Wed 01:33:56 PM 29.3936 -81.0811 195° South 346 398 12,000 -358 Descending Jacksonville Center
Wed 01:34:15 PM 29.3667 -81.0936 202° Southwest 328 377 12,000 -1,500 Level Jacksonville Center
Wed 01:34:56 PM 29.3083 -81.1136 197° South 325 374 10,500 -2,239 Descending Jacksonville Center
Wed 01:35:22 PM 29.2753 -81.1236 195° South 308 354 9,500 -2,600 Descending Jacksonville Center
Wed 01:35:56 PM 29.2336 -81.1436 203° Southwest 301 346 7,900 -2,618 Descending Jacksonville Center
Wed 01:36:17 PM 29.2175 -81.1725 237° Southwest 270 311 7,100 -2,500 Descending Jacksonville Center
Wed 01:36:56 PM 29.1972 -81.2181 243° Southwest 268 308 5,400 -2,656 Descending Jacksonville Center
Wed 01:37:18 PM 29.1828 -81.2492 242° Southwest 262 302 4,400 -2,262 Descending Jacksonville Center
Wed 01:37:57 PM 29.1497 -81.2758 215° Southwest 242 278 3,100 -1,574 Descending Jacksonville Center
Wed 01:38:19 PM 29.1247 -81.2667 162° South 226 260 2,800 -712 Descending Jacksonville Center
Wed 01:38:56 PM 29.1036 -81.2575 159° South 178 205 2,400 -1,082 Descending Jacksonville Center
Wed 01:39:20 PM 29.1197 -81.2050 71° East 185 213 1,700 21,600 Descending Jacksonville Center
Wed 01:39:56 PM 29.0581 -81.2750 225° Southwest 178 205 24,000 -393 Climbing Jacksonville Center
Wed 01:40:21 PM 29.1419 -81.1569 51° Northeast 152 175 1,300  Descending Jacksonville Center
Wed 01:40:57 PM 29.0103 -81.2947 222° Southwest 178 205 24,000 -492 Climbing Jacksonville Center
Wed 01:41:22 PM 29.1561 -81.1139 47° Northeast 147 169 800 -55,680 Descending Jacksonville Center
Wed 01:43:00 PM 29.1667 -81.0500 75° East  Level FlightAware Approximate

Login

Don't have an account? Register now (free) for customized features, flight alerts, and more!